Fort Franklin, Canada
Current Conditions -  °F | °C
As of 10:00 AM on Thursday 30 Oct 2014 (Local Time) from CYVQ Reporting Station
Light Snow Light Snow  
Wind Chill:   Ceiling: 500
Heat Index:   Visibility: 6mi
Dew Point:   Wind: 2mph
Humidity: 92%   Direction: 20°NNE
Pressure: 29.92"   Gusts: NA
Location:  65.19°N, 123.42°W
Report Text: CYVQ 301600Z 02002KT 6SM -SN FEW002 BKN005 OVC020 M14/M15 A2992 RMK ST2ST5SC1 CIG RAG SLP140
Loading
Personal Weather Stations






























Interactive Weather Map
Tropical Storm Tracking
New forecast layout! Learn more

10-Day Weather Forecast

Advertisements
Track Severe Weather on mobile